createdAt,value
2022-12-19T00:02:09.544Z,4.10
2022-12-19T00:04:39.744Z,4.20
2022-12-19T00:07:10.011Z,4.32
2022-12-19T00:09:40.828Z,3.70
2022-12-19T00:12:17.403Z,4.38
2022-12-19T00:14:49.912Z,4.95
2022-12-19T00:17:20.380Z,5.25
2022-12-19T00:19:54.584Z,4.10
2022-12-19T00:22:25.310Z,4.47
2022-12-19T00:24:55.543Z,7.20
2022-12-19T00:27:26.064Z,4.93
2022-12-19T00:29:56.820Z,4.70
2022-12-19T00:32:27.230Z,5.15
2022-12-19T00:34:58.108Z,4.93
2022-12-19T00:37:31.352Z,5.20
2022-12-19T00:40:01.959Z,5.20
2022-12-19T00:42:32.514Z,4.18
2022-12-19T00:45:03.906Z,3.97
2022-12-19T00:47:34.267Z,4.10
2022-12-19T00:50:05.613Z,5.15
2022-12-19T00:52:37.201Z,3.90
2022-12-19T00:55:09.851Z,3.20
2022-12-19T00:57:49.118Z,3.85
2022-12-19T01:00:19.671Z,3.70
2022-12-19T01:02:50.436Z,3.58
2022-12-19T01:05:22.198Z,3.90
2022-12-19T01:07:52.726Z,4.57
2022-12-19T01:10:28.230Z,4.05
2022-12-19T01:12:59.458Z,4.00
2022-12-19T01:15:30.590Z,3.78
2022-12-19T01:18:01.066Z,4.18
2022-12-19T01:20:31.319Z,4.07
2022-12-19T01:23:04.615Z,3.47
2022-12-19T01:25:36.877Z,3.15
2022-12-19T01:28:12.273Z,2.83
2022-12-19T01:30:44.806Z,3.42
2022-12-19T01:33:21.937Z,2.97
2022-12-19T01:35:55.295Z,3.50
2022-12-19T01:38:25.487Z,4.05
2022-12-19T01:40:58.369Z,4.35
2022-12-19T01:43:35.492Z,3.70
2022-12-19T01:46:11.908Z,5.07
2022-12-19T01:48:47.638Z,3.53
2022-12-19T01:51:24.778Z,3.40
2022-12-19T01:54:01.794Z,3.35
2022-12-19T01:56:37.072Z,5.68
2022-12-19T01:59:12.277Z,3.72
2022-12-19T02:01:51.510Z,4.40
2022-12-19T02:04:31.958Z,3.75
2022-12-19T02:07:15.342Z,4.53
2022-12-19T02:09:56.670Z,4.00
2022-12-19T02:12:39.766Z,3.78
2022-12-19T02:15:12.750Z,3.70
2022-12-19T02:18:08.797Z,3.10
2022-12-19T02:20:44.869Z,3.50
2022-12-19T02:23:53.229Z,3.63
2022-12-19T02:26:51.441Z,3.80
2022-12-19T02:29:38.369Z,3.42
2022-12-19T02:32:31.120Z,3.50
2022-12-19T02:35:18.651Z,3.17
2022-12-19T02:38:13.239Z,3.33
2022-12-19T02:40:55.472Z,2.90
2022-12-19T02:43:29.979Z,3.55
2022-12-19T02:46:01.506Z,2.80
2022-12-19T02:48:33.863Z,3.08
2022-12-19T02:51:06.372Z,3.90
2022-12-19T02:53:37.740Z,3.25
2022-12-19T02:56:14.359Z,3.58
2022-12-19T02:59:34.930Z,2.92
2022-12-19T03:02:08.374Z,3.00
2022-12-19T03:04:57.907Z,3.60
2022-12-19T03:07:44.785Z,2.80
2022-12-19T03:10:48.627Z,2.38
2022-12-19T03:13:23.033Z,2.80
2022-12-19T03:15:54.715Z,3.10
2022-12-19T03:18:25.935Z,2.55
2022-12-19T03:21:17.085Z,2.95
2022-12-19T03:23:47.800Z,2.00
2022-12-19T03:26:21.787Z,2.60
2022-12-19T03:28:55.649Z,3.03
2022-12-19T03:31:29.360Z,2.92
2022-12-19T03:34:08.343Z,2.70
2022-12-19T03:36:43.005Z,2.50
2022-12-19T03:39:14.804Z,2.67
2022-12-19T03:42:04.227Z,2.70
2022-12-19T03:44:38.192Z,2.20
2022-12-19T03:47:15.588Z,2.30
2022-12-19T03:49:47.078Z,2.88
2022-12-19T03:52:47.834Z,2.40
2022-12-19T03:56:12.117Z,3.25
2022-12-19T03:58:47.161Z,3.95
2022-12-19T04:01:18.320Z,4.75
2022-12-19T04:03:49.448Z,3.85
2022-12-19T04:06:20.332Z,3.63
2022-12-19T04:08:51.068Z,4.00
2022-12-19T04:11:22.366Z,2.55
2022-12-19T04:13:59.579Z,2.78
2022-12-19T04:16:45.189Z,2.75
2022-12-19T04:19:55.972Z,2.42
2022-12-19T04:22:55.881Z,1.95
2022-12-19T04:25:39.524Z,2.45
2022-12-19T04:28:21.196Z,1.95
2022-12-19T04:30:52.184Z,1.83
2022-12-19T04:33:23.241Z,1.90
2022-12-19T04:35:53.844Z,1.92
2022-12-19T04:38:28.091Z,2.40
2022-12-19T04:40:58.613Z,2.72
2022-12-19T04:43:29.174Z,2.30
2022-12-19T04:45:59.566Z,2.70
2022-12-19T04:48:30.169Z,2.10
2022-12-19T04:51:00.689Z,2.35
2022-12-19T04:53:31.268Z,1.80
2022-12-19T04:56:06.920Z,2.70
2022-12-19T04:58:37.415Z,2.55
2022-12-19T05:01:09.632Z,2.20
2022-12-19T05:03:42.350Z,2.20
2022-12-19T05:06:16.237Z,3.33
2022-12-19T05:08:47.074Z,2.83
2022-12-19T05:11:20.010Z,2.40
2022-12-19T05:13:51.130Z,2.85
2022-12-19T05:16:21.836Z,2.47
2022-12-19T05:18:52.702Z,1.88
2022-12-19T05:21:24.681Z,2.80
2022-12-19T05:23:55.228Z,2.42
2022-12-19T05:26:26.386Z,2.10
2022-12-19T05:28:56.955Z,2.60
2022-12-19T05:31:27.569Z,2.10
2022-12-19T05:33:57.915Z,2.22
2022-12-19T05:36:32.458Z,2.33
2022-12-19T05:39:03.412Z,2.80
2022-12-19T05:41:37.056Z,2.35
2022-12-19T05:44:07.695Z,2.60
2022-12-19T05:46:37.950Z,2.72
2022-12-19T05:49:08.110Z,2.70
2022-12-19T05:51:39.330Z,2.58
2022-12-19T05:54:10.373Z,2.95
2022-12-19T05:56:41.006Z,2.33
2022-12-19T05:59:12.777Z,2.10
2022-12-19T06:01:44.246Z,3.13
2022-12-19T06:04:15.229Z,2.45
2022-12-19T06:06:45.692Z,3.85
2022-12-19T06:09:16.286Z,3.42
2022-12-19T06:11:47.071Z,3.28
2022-12-19T06:14:17.945Z,3.97
2022-12-19T06:16:49.410Z,3.00
2022-12-19T06:19:20.290Z,3.30
2022-12-19T06:21:52.264Z,3.13
2022-12-19T06:24:25.273Z,2.72
2022-12-19T06:26:56.838Z,2.03
2022-12-19T06:29:27.505Z,2.42
2022-12-19T06:31:58.341Z,3.00
2022-12-19T06:35:02.039Z,2.85
2022-12-19T06:37:20.113Z,2.38
2022-12-19T06:39:52.300Z,2.25
2022-12-19T06:42:25.757Z,2.15
2022-12-19T06:44:57.086Z,2.38
2022-12-19T06:47:27.808Z,2.30
2022-12-19T06:49:58.522Z,2.90
2022-12-19T06:52:28.746Z,2.40
2022-12-19T06:54:58.988Z,2.55
2022-12-19T06:57:29.274Z,3.15
2022-12-19T07:00:00.119Z,3.30
2022-12-19T07:02:31.762Z,2.47
2022-12-19T07:05:05.735Z,2.58
2022-12-19T07:07:35.976Z,2.60
2022-12-19T07:10:07.491Z,2.75
2022-12-19T07:12:39.335Z,2.90
2022-12-19T07:15:10.009Z,2.60
2022-12-19T07:17:40.679Z,3.30
2022-12-19T07:20:13.247Z,4.65
2022-12-19T07:22:47.277Z,3.22
2022-12-19T07:25:18.775Z,3.13
2022-12-19T07:27:57.086Z,3.25
2022-12-19T07:30:27.386Z,3.28
2022-12-19T07:32:57.772Z,2.80
2022-12-19T07:35:28.110Z,3.85
2022-12-19T07:38:08.281Z,3.30
2022-12-19T07:40:38.696Z,5.75
2022-12-19T07:43:09.310Z,3.60
2022-12-19T07:45:40.282Z,3.42
2022-12-19T07:48:11.094Z,3.25
2022-12-19T07:50:42.838Z,3.08
2022-12-19T07:53:13.129Z,3.40
2022-12-19T07:55:43.642Z,3.60
2022-12-19T07:58:15.460Z,3.40
2022-12-19T08:00:48.577Z,3.15
2022-12-19T08:03:19.000Z,3.42
2022-12-19T08:05:49.896Z,4.13
2022-12-19T08:08:21.523Z,3.60
2022-12-19T08:10:51.898Z,3.42
2022-12-19T08:13:22.764Z,3.70
2022-12-19T08:15:53.530Z,3.65
2022-12-19T08:18:24.970Z,4.30
2022-12-19T08:20:55.496Z,5.57
2022-12-19T08:23:26.362Z,3.55
2022-12-19T08:26:08.575Z,3.95
2022-12-19T08:28:39.676Z,4.20
2022-12-19T08:31:17.714Z,4.75
2022-12-19T08:33:51.583Z,4.68
2022-12-19T08:36:23.690Z,3.88
2022-12-19T08:38:57.230Z,3.65
2022-12-19T08:41:29.065Z,3.30
2022-12-19T08:44:01.665Z,3.72
2022-12-19T08:46:32.685Z,4.60
2022-12-19T08:49:03.085Z,6.20
2022-12-19T08:51:35.587Z,4.47
2022-12-19T08:54:07.925Z,4.20
2022-12-19T08:56:46.396Z,4.50
2022-12-19T08:59:30.294Z,4.53
2022-12-19T09:02:02.534Z,5.05
2022-12-19T09:05:26.056Z,4.90
2022-12-19T09:07:26.888Z,5.53
2022-12-19T09:09:57.280Z,4.72
2022-12-19T09:12:29.699Z,5.03
2022-12-19T09:15:00.792Z,5.57
2022-12-19T09:17:31.635Z,7.10
2022-12-19T09:20:02.140Z,8.02
2022-12-19T09:22:34.615Z,7.93
2022-12-19T09:25:05.815Z,6.65
2022-12-19T09:28:01.319Z,6.90
2022-12-19T09:30:31.128Z,11.23
2022-12-19T09:33:03.518Z,11.10
2022-12-19T09:35:34.285Z,10.02
2022-12-19T09:38:04.690Z,11.80
2022-12-19T09:41:04.360Z,6.95
2022-12-19T09:43:56.170Z,8.20
2022-12-19T09:47:01.325Z,9.40
2022-12-19T09:49:41.647Z,10.27
2022-12-19T09:52:20.810Z,16.83
2022-12-19T09:55:17.256Z,12.88
2022-12-19T09:58:27.990Z,9.32
2022-12-19T10:01:00.491Z,10.50
2022-12-19T10:03:42.929Z,9.48
2022-12-19T10:07:11.367Z,8.50
2022-12-19T10:11:25.037Z,8.80
2022-12-19T10:12:52.875Z,8.77
2022-12-19T10:15:58.969Z,14.80
2022-12-19T10:18:36.838Z,10.40
2022-12-19T10:21:19.197Z,17.02
2022-12-19T10:24:35.061Z,6.63
2022-12-19T10:27:25.963Z,8.57
2022-12-19T10:30:18.952Z,6.18
2022-12-19T10:33:20.128Z,10.02
2022-12-19T10:36:01.701Z,7.45
2022-12-19T10:39:07.790Z,7.40
2022-12-19T10:41:43.994Z,6.90
2022-12-19T10:44:15.533Z,5.50
2022-12-19T10:46:48.049Z,6.10
2022-12-19T10:49:26.991Z,5.75
2022-12-19T10:51:57.666Z,6.60
2022-12-19T10:54:50.219Z,7.07
2022-12-19T10:57:23.851Z,6.43
2022-12-19T11:00:01.033Z,5.32
2022-12-19T11:02:44.959Z,6.68
2022-12-19T11:05:30.951Z,5.78
2022-12-19T11:08:30.325Z,5.35
2022-12-19T11:12:14.535Z,6.18
2022-12-19T11:17:03.880Z,5.80
2022-12-19T11:23:01.777Z,6.80
2022-12-19T11:28:47.449Z,7.15
2022-12-19T11:29:37.372Z,5.88
2022-12-19T11:30:36.953Z,6.05
2022-12-19T11:30:46.429Z,6.47
2022-12-19T11:34:36.647Z,6.30
2022-12-19T11:37:35.398Z,5.82
2022-12-19T11:40:17.112Z,5.80
2022-12-19T11:43:42.755Z,12.07
2022-12-19T11:46:22.096Z,6.97
2022-12-19T11:49:03.529Z,6.00
2022-12-19T11:52:11.574Z,6.70
2022-12-19T11:54:58.756Z,6.18
2022-12-19T11:57:29.723Z,6.13
2022-12-19T12:00:05.009Z,5.68
2022-12-19T12:03:07.813Z,9.20
2022-12-19T12:05:49.388Z,6.88
2022-12-19T12:11:13.003Z,4.97
2022-12-19T12:22:20.996Z,6.78
2022-12-19T12:26:56.795Z,5.32
2022-12-19T12:31:01.414Z,5.60
2022-12-19T12:31:07.464Z,9.52
2022-12-19T12:31:11.207Z,12.00
2022-12-19T12:31:57.750Z,5.05
2022-12-19T12:37:08.196Z,5.10
2022-12-19T12:38:24.996Z,6.57
2022-12-19T12:41:03.206Z,8.77
2022-12-19T12:44:03.001Z,6.70
2022-12-19T12:46:38.509Z,4.10
2022-12-19T12:49:28.966Z,8.55
2022-12-19T12:52:00.714Z,6.28
2022-12-19T12:54:36.081Z,5.55
2022-12-19T12:57:08.100Z,5.00
2022-12-19T12:59:38.651Z,4.05
2022-12-19T13:02:18.214Z,9.25
2022-12-19T13:05:02.342Z,5.65
2022-12-19T13:07:52.774Z,3.53
2022-12-19T13:10:33.591Z,4.03
2022-12-19T13:13:14.975Z,3.72
2022-12-19T13:15:48.537Z,3.63
2022-12-19T13:18:35.536Z,4.00
2022-12-19T13:21:08.197Z,6.18
2022-12-19T13:23:38.711Z,5.15
2022-12-19T13:26:54.270Z,5.57
2022-12-19T13:29:34.797Z,8.27
2022-12-19T13:32:17.057Z,4.88
2022-12-19T13:35:34.640Z,4.85
2022-12-19T13:39:55.540Z,4.15
2022-12-19T13:41:47.922Z,3.03
2022-12-19T13:44:26.467Z,3.97
2022-12-19T13:46:57.783Z,2.90
2022-12-19T13:49:35.065Z,2.20
2022-12-19T13:52:06.373Z,2.42
2022-12-19T13:54:50.396Z,2.28
2022-12-19T13:57:28.084Z,2.00
2022-12-19T14:00:08.198Z,2.10
2022-12-19T14:02:43.973Z,1.85
2022-12-19T14:06:14.578Z,1.90
2022-12-19T14:08:27.628Z,2.10
2022-12-19T14:11:39.873Z,1.92
2022-12-19T14:14:18.963Z,2.05
2022-12-19T14:16:57.809Z,1.92
2022-12-19T14:19:31.761Z,2.28
2022-12-19T14:22:26.014Z,1.83
2022-12-19T14:25:49.792Z,1.98
2022-12-19T14:28:19.826Z,1.95
2022-12-19T14:30:57.785Z,2.00
2022-12-19T14:33:44.122Z,1.60
2022-12-19T14:36:29.256Z,1.80
2022-12-19T14:39:26.345Z,1.75
2022-12-19T14:42:19.039Z,1.52
2022-12-19T14:54:06.173Z,1.30
2022-12-19T14:54:15.329Z,1.90
2022-12-19T14:54:18.499Z,1.50
2022-12-19T14:54:28.660Z,1.50
2022-12-19T14:56:45.119Z,1.73
2022-12-19T14:59:23.939Z,1.83
2022-12-19T15:01:58.827Z,1.63
2022-12-19T15:04:52.413Z,1.90
2022-12-19T15:07:30.293Z,2.30
2022-12-19T15:11:04.353Z,3.03
2022-12-19T15:14:53.290Z,2.60
2022-12-19T15:16:31.474Z,2.50
2022-12-19T15:19:03.545Z,2.03
2022-12-19T15:21:33.853Z,1.60
2022-12-19T15:24:07.106Z,1.80
2022-12-19T15:26:49.650Z,1.55
2022-12-19T15:29:23.115Z,1.80
2022-12-19T15:31:53.664Z,1.83
2022-12-19T15:34:35.584Z,2.05
2022-12-19T15:37:08.229Z,1.92
2022-12-19T15:39:38.967Z,2.13
2022-12-19T15:42:24.059Z,2.10
2022-12-19T15:44:56.716Z,1.67
2022-12-19T15:47:37.799Z,1.90
2022-12-19T15:50:24.974Z,2.08
2022-12-19T15:53:01.851Z,1.95
2022-12-19T15:55:32.739Z,2.00
2022-12-19T15:58:07.237Z,2.10
2022-12-19T16:00:38.810Z,1.73
2022-12-19T16:03:23.803Z,1.88
2022-12-19T16:05:55.676Z,1.80
2022-12-19T16:08:27.175Z,2.00
2022-12-19T16:11:01.784Z,2.03
2022-12-19T16:13:37.967Z,2.03
2022-12-19T16:16:15.345Z,2.15
2022-12-19T16:18:48.433Z,1.90
2022-12-19T16:21:31.472Z,1.70
2022-12-19T16:24:05.078Z,1.60
2022-12-19T16:26:37.606Z,3.30
2022-12-19T16:29:20.758Z,1.52
2022-12-19T16:31:52.093Z,2.35
2022-12-19T16:34:24.968Z,2.00
2022-12-19T16:36:55.810Z,2.97
2022-12-19T16:39:26.535Z,2.00
2022-12-19T16:41:57.230Z,2.13
2022-12-19T16:44:28.234Z,1.90
2022-12-19T16:46:59.280Z,1.83
2022-12-19T16:49:34.164Z,1.80
2022-12-19T16:52:04.488Z,1.88
2022-12-19T16:54:35.523Z,1.73
2022-12-19T16:57:09.577Z,1.60
2022-12-19T16:59:43.990Z,1.80
2022-12-19T17:02:59.598Z,1.90
2022-12-19T17:05:33.365Z,1.98
2022-12-19T17:08:04.064Z,2.05
2022-12-19T17:10:35.427Z,2.08
2022-12-19T17:13:06.010Z,1.90
2022-12-19T17:15:37.746Z,2.20
2022-12-19T17:18:27.949Z,1.73
2022-12-19T17:20:58.826Z,1.50
2022-12-19T17:23:32.014Z,1.70
2022-12-19T17:26:04.933Z,1.60
2022-12-19T17:28:37.636Z,1.58
2022-12-19T17:31:14.268Z,1.55
2022-12-19T17:33:45.184Z,1.58
2022-12-19T17:36:19.885Z,1.48
2022-12-19T17:38:55.040Z,1.60
2022-12-19T17:41:26.509Z,1.27
2022-12-19T17:43:56.961Z,1.33
2022-12-19T17:46:28.270Z,1.00
2022-12-19T17:49:08.438Z,1.10
2022-12-19T17:51:39.239Z,1.20
2022-12-19T17:54:13.282Z,1.75
2022-12-19T17:56:43.817Z,1.42
2022-12-19T17:59:14.571Z,1.30
2022-12-19T18:01:48.187Z,1.10
2022-12-19T18:04:20.617Z,1.00
2022-12-19T18:06:51.647Z,1.00
2022-12-19T18:09:24.976Z,1.08
2022-12-19T18:11:55.496Z,1.25
2022-12-19T18:14:25.786Z,1.58
2022-12-19T18:16:56.456Z,1.50
2022-12-19T18:19:32.362Z,1.95
2022-12-19T18:22:02.906Z,1.60
2022-12-19T18:24:33.473Z,1.60
2022-12-19T18:27:03.997Z,1.77
2022-12-19T18:29:34.595Z,1.80
2022-12-19T18:32:05.420Z,1.40
2022-12-19T18:34:37.465Z,1.80
2022-12-19T18:37:14.388Z,1.35
2022-12-19T18:39:45.137Z,1.77
2022-12-19T18:42:22.109Z,1.42
2022-12-19T18:44:53.254Z,1.60
2022-12-19T18:47:25.121Z,1.80
2022-12-19T18:49:56.136Z,1.70
2022-12-19T18:52:26.891Z,2.08
2022-12-19T18:54:57.474Z,2.20
2022-12-19T18:57:28.098Z,2.03
2022-12-19T18:59:58.494Z,2.13
2022-12-19T19:02:29.344Z,2.40
2022-12-19T19:05:03.510Z,2.30
2022-12-19T19:07:34.278Z,2.22
2022-12-19T19:10:24.732Z,3.00
2022-12-19T19:13:17.468Z,2.50
2022-12-19T19:15:55.332Z,3.13
2022-12-19T19:18:34.959Z,2.72
2022-12-19T19:21:07.113Z,3.10
2022-12-19T19:23:44.110Z,3.50
2022-12-19T19:26:14.527Z,3.60
2022-12-19T19:28:51.705Z,4.57
2022-12-19T19:31:27.395Z,4.53
2022-12-19T19:34:19.827Z,4.38
2022-12-19T19:36:51.705Z,5.00
2022-12-19T19:39:23.801Z,4.07
2022-12-19T19:41:57.305Z,4.35
2022-12-19T19:44:28.154Z,3.92
2022-12-19T19:46:59.379Z,3.83
2022-12-19T19:49:30.254Z,4.25
2022-12-19T19:52:03.087Z,3.50
2022-12-19T19:54:34.763Z,3.30
2022-12-19T19:57:06.584Z,5.85
2022-12-19T19:59:39.952Z,6.38
2022-12-19T20:02:12.139Z,4.00
2022-12-19T20:04:47.505Z,3.70
2022-12-19T20:07:18.347Z,2.60
2022-12-19T20:09:48.868Z,2.55
2022-12-19T20:12:19.113Z,2.80
2022-12-19T20:14:49.710Z,2.53
2022-12-19T20:17:20.262Z,2.75
2022-12-19T20:19:51.891Z,2.78
2022-12-19T20:22:22.329Z,2.35
2022-12-19T20:24:54.844Z,2.00
2022-12-19T20:27:25.438Z,2.25
2022-12-19T20:29:55.899Z,2.30
2022-12-19T20:32:27.947Z,2.10
2022-12-19T20:34:58.458Z,1.98
2022-12-19T20:37:28.956Z,2.13
2022-12-19T20:39:59.449Z,1.73
2022-12-19T20:42:30.051Z,1.50
2022-12-19T20:45:01.018Z,2.10
2022-12-19T20:47:32.343Z,1.88
2022-12-19T20:50:03.411Z,1.90
2022-12-19T20:52:33.664Z,2.40
2022-12-19T20:55:08.149Z,2.10
2022-12-19T20:57:38.849Z,2.10
2022-12-19T21:00:11.160Z,2.20
2022-12-19T21:03:24.913Z,1.80
2022-12-19T21:05:32.831Z,1.63
2022-12-19T21:08:03.673Z,2.00
2022-12-19T21:10:34.002Z,2.13
2022-12-19T21:13:04.478Z,2.00
2022-12-19T21:15:35.443Z,1.65
2022-12-19T21:18:05.852Z,2.45
2022-12-19T21:20:38.085Z,3.38
2022-12-19T21:23:08.717Z,3.97
2022-12-19T21:25:39.735Z,4.82
2022-12-19T21:28:11.110Z,5.00
2022-12-19T21:30:41.656Z,6.15
2022-12-19T21:33:12.738Z,5.13
2022-12-19T21:35:43.607Z,4.25
2022-12-19T21:38:14.463Z,3.17
2022-12-19T21:40:45.585Z,3.13
2022-12-19T21:43:17.626Z,2.70
2022-12-19T21:45:48.368Z,2.80
2022-12-19T21:48:18.797Z,2.30
2022-12-19T21:50:57.160Z,2.00
2022-12-19T21:53:27.689Z,2.22
2022-12-19T21:56:10.624Z,1.80
2022-12-19T21:58:41.554Z,2.47
2022-12-19T22:01:14.071Z,1.77
2022-12-19T22:03:44.571Z,2.40
2022-12-19T22:06:27.731Z,2.67
2022-12-19T22:08:59.535Z,2.60
2022-12-19T22:11:30.953Z,2.65
2022-12-19T22:14:02.641Z,2.70
2022-12-19T22:16:33.342Z,2.60
2022-12-19T22:19:05.475Z,2.85
2022-12-19T22:21:36.050Z,3.88
2022-12-19T22:24:06.322Z,3.80
2022-12-19T22:26:38.892Z,4.18
2022-12-19T22:29:12.691Z,3.67
2022-12-19T22:31:44.264Z,4.63
2022-12-19T22:34:20.654Z,4.20
2022-12-19T22:36:51.052Z,3.67
2022-12-19T22:39:23.379Z,3.95
2022-12-19T22:41:53.697Z,3.05
2022-12-19T22:44:25.892Z,3.45
2022-12-19T22:46:57.099Z,3.80
2022-12-19T22:49:27.641Z,3.17
2022-12-19T22:51:58.194Z,4.38
2022-12-19T22:54:28.754Z,4.97
2022-12-19T22:56:59.828Z,5.32
2022-12-19T22:59:31.137Z,5.43
2022-12-19T23:02:01.764Z,5.20
2022-12-19T23:04:35.967Z,6.20
2022-12-19T23:07:10.558Z,5.95
2022-12-19T23:09:41.356Z,6.50
2022-12-19T23:12:11.987Z,5.88
2022-12-19T23:14:42.728Z,5.60
2022-12-19T23:17:14.166Z,5.45
2022-12-19T23:19:45.133Z,6.50
2022-12-19T23:22:19.137Z,6.20
2022-12-19T23:24:49.943Z,7.43
2022-12-19T23:27:21.203Z,7.25
2022-12-19T23:29:52.149Z,7.72
2022-12-19T23:32:22.749Z,8.35
2022-12-19T23:34:53.202Z,9.00
2022-12-19T23:37:24.270Z,8.63
2022-12-19T23:39:54.945Z,7.75
2022-12-19T23:42:26.294Z,8.93
2022-12-19T23:44:57.210Z,8.57
2022-12-19T23:47:27.978Z,8.57
2022-12-19T23:49:58.805Z,8.73
2022-12-19T23:52:30.024Z,9.38
2022-12-19T23:55:01.140Z,10.27
2022-12-19T23:57:31.647Z,11.13
